עמוד ראשי
METAR-TAF:

METAR-TAF

שדות תעופה :

Yao, יפן

קו רוחב: 34-36N, קו אורך: 135-36E, גובה: 10מטר

תצפית מזג אוויר נוכחית

הדו"ח נערך לפני 53דקות, בשעה 03:00 UTC
רוח 9קשר מכיוון מערב
טמפרטורת 34 צלסיוס
לחות 60%
לחץ 1011 hPa
ראות 10 קילומטר או יותר
מעט עננים בגובה 2000רגל

METAR: RJOY 210300Z 27009KT 9999 FEW020 34/25 Q1011

זמן: 12:53 (03:53 UTC)


TAF: חסר

תצפיות ותחזיות מזג אוויר לגבי יותר מ- 4,000 שדות תעופה ברחבי העולם. דוחות METAR ו- TAF.

התחנות הזמינות מסומנות בנקודות צהובות ואדומות על גבי המפה.

העבר את העכבר לנקודה הצבעונית על מנת לראות את שם התחנה.

לאחר מכן, לחץ כדי לראות את תוכן ואת תחזיות מזג האוויר.

כדי לשנות את המפה: לחץ על הכפתורים הירוקים עם הפלוס השחור כדי להתקרב; על הכפתור הירוק עם המקף כדי להתרחק; או בחיצים הירוקים למפות סמוכות.


METAR-TAF: